aviador You're here:

KLTS Decoded Metar

ALTUS in OK, USA
Report Time2017-09-23 08:58:00
UTC Time2017-09-23 09:18:31
Flight Rules vfr VFR
Wind110° at 08 kt
W.Decomp.*RWY 17: 3.0 kt HW 7.4 kt LCW
W.Rank110° ranks 9
Current wind is above 110° avg. (7.0)
Visibility9999 m
Phenomena:N/A
Clouds:N/A
Expected CloudBase > 1,200 ft AGL from Temp-Dew spread
CeilingNone
Temp21°C (ISA +9)
Dew Point18°C (83% RH)
AAT20.9°C
QNH1013 hPa
Density Alt2,677 ft
Elevation1,378 ft
Report Wrong Elevation
Raw Report
KLTS 230858Z AUTO 11008KT 10SM CLR 21/18 A2990 RMK AO2 SLP109
T02120181 52005 CHINO RWY35R $=

Extra information for KLTS:More info

Metar Taf Metar & Taf Last 4 Metars F.Rules Stats Wind Profile Meteogram Temp Stats Airport Information Weather charts Add Link Nearby VenuesMetar ALERT Operation Metar Decoded Social comments

AIRNAV info for KLTS